ATV303 EDNY-EDDH
Flight info
| Callsign | ATV303 |
|---|---|
| Flight time | 1h 17m |
| Altitude | 22000 |
| Route | ALAGO1W ALAGO Z1 NOTGA N624 NIKUT T726 TOSTU P605 NOLGO NOLGO6A |
| Aircraft | DH8D/M-SDGIRWY/S |
Departure
| Time | 2026-05-06 13:34 |
|---|---|
| Airport | Bodensee Airport Friedrichshafen (EDNY) |
Arrival
| Time | 2026-05-06 14:51 |
|---|---|
| Airport | Hamburg Helmut Schmidt Airport (EDDH) |
| Time | Latitude | Longitude | Altitude | Speed | Heading |
|---|---|---|---|---|---|
| 2026-05-06 13:21 | 47.67342 | 9.52319 | 1367 ft | 0 kts | 191° |
| 2026-05-06 13:30 | 47.67338 | 9.52314 | 1367 ft | 1 kts | 238° |
| 2026-05-06 13:30 | 47.67350 | 9.52302 | 1368 ft | 3 kts | 353° |
| 2026-05-06 13:30 | 47.67388 | 9.52302 | 1368 ft | 7 kts | 25° |
| 2026-05-06 13:30 | 47.67423 | 9.52367 | 1368 ft | 9 kts | 62° |
| 2026-05-06 13:31 | 47.67451 | 9.52449 | 1368 ft | 8 kts | 62° |
| 2026-05-06 13:31 | 47.67480 | 9.52523 | 1368 ft | 7 kts | 58° |
| 2026-05-06 13:31 | 47.67511 | 9.52583 | 1368 ft | 6 kts | 35° |
| 2026-05-06 13:31 | 47.67551 | 9.52581 | 1368 ft | 5 kts | 336° |
| 2026-05-06 13:32 | 47.67586 | 9.52551 | 1368 ft | 8 kts | 330° |
| 2026-05-06 13:32 | 47.67641 | 9.52471 | 1368 ft | 9 kts | 266° |
| 2026-05-06 13:32 | 47.67635 | 9.52447 | 1369 ft | 0 kts | 240° |
| 2026-05-06 13:33 | 47.67623 | 9.52417 | 1369 ft | 20 kts | 239° |
| 2026-05-06 13:33 | 47.67392 | 9.51823 | 1365 ft | 108 kts | 240° |
| 2026-05-06 13:33 | 47.66922 | 9.50593 | 1432 ft | 151 kts | 240° |
| 2026-05-06 13:33 | 47.66455 | 9.49203 | 1896 ft | 157 kts | 245° |
| 2026-05-06 13:34 | 47.65944 | 9.47838 | 2551 ft | 153 kts | 238° |
| 2026-05-06 13:34 | 47.65379 | 9.46479 | 3017 ft | 162 kts | 240° |
| 2026-05-06 13:34 | 47.64801 | 9.45034 | 3529 ft | 169 kts | 240° |
| 2026-05-06 13:34 | 47.64163 | 9.43427 | 3755 ft | 196 kts | 240° |
| 2026-05-06 13:35 | 47.63451 | 9.41616 | 4117 ft | 210 kts | 239° |
| 2026-05-06 13:35 | 47.62817 | 9.39628 | 4532 ft | 217 kts | 260° |
| 2026-05-06 13:35 | 47.63090 | 9.37441 | 4955 ft | 224 kts | 302° |
| 2026-05-06 13:35 | 47.64258 | 9.35958 | 5484 ft | 227 kts | 327° |
| 2026-05-06 13:36 | 47.65615 | 9.34794 | 6031 ft | 230 kts | 328° |
| 2026-05-06 13:36 | 47.67002 | 9.33615 | 6592 ft | 232 kts | 327° |
| 2026-05-06 13:36 | 47.68421 | 9.32455 | 7114 ft | 236 kts | 334° |
| 2026-05-06 13:36 | 47.70033 | 9.32179 | 7567 ft | 241 kts | 12° |
| 2026-05-06 13:37 | 47.71469 | 9.33416 | 8018 ft | 244 kts | 42° |
| 2026-05-06 13:37 | 47.72684 | 9.35175 | 8580 ft | 244 kts | 44° |
| 2026-05-06 13:37 | 47.73889 | 9.36935 | 9095 ft | 247 kts | 45° |
| 2026-05-06 13:37 | 47.75109 | 9.38777 | 9620 ft | 250 kts | 46° |
| 2026-05-06 13:38 | 47.76316 | 9.40611 | 10158 ft | 252 kts | 46° |
| 2026-05-06 13:38 | 47.77561 | 9.42497 | 10632 ft | 256 kts | 46° |
| 2026-05-06 13:38 | 47.78807 | 9.44369 | 11091 ft | 260 kts | 45° |
| 2026-05-06 13:38 | 47.80277 | 9.45926 | 11519 ft | 265 kts | 19° |
| 2026-05-06 13:39 | 47.82106 | 9.46246 | 11919 ft | 266 kts | 358° |
| 2026-05-06 13:39 | 47.83968 | 9.46228 | 12344 ft | 269 kts | 358° |
| 2026-05-06 13:39 | 47.85856 | 9.46215 | 12757 ft | 274 kts | 358° |
| 2026-05-06 13:39 | 47.87739 | 9.46203 | 13196 ft | 275 kts | 357° |
| 2026-05-06 13:40 | 47.89664 | 9.46192 | 13580 ft | 279 kts | 357° |
| 2026-05-06 13:40 | 47.91607 | 9.46183 | 14010 ft | 281 kts | 357° |
| 2026-05-06 13:40 | 47.93579 | 9.46175 | 14462 ft | 281 kts | 357° |
| 2026-05-06 13:40 | 47.95540 | 9.46167 | 14818 ft | 284 kts | 357° |
| 2026-05-06 13:41 | 47.97498 | 9.46160 | 15200 ft | 286 kts | 357° |
| 2026-05-06 13:41 | 47.99499 | 9.46154 | 15573 ft | 287 kts | 357° |
| 2026-05-06 13:41 | 48.01508 | 9.46148 | 15962 ft | 288 kts | 357° |
| 2026-05-06 13:41 | 48.03515 | 9.46143 | 16306 ft | 291 kts | 357° |
| 2026-05-06 13:42 | 48.05533 | 9.46137 | 16673 ft | 292 kts | 357° |
| 2026-05-06 13:42 | 48.07542 | 9.46132 | 17012 ft | 293 kts | 358° |
| 2026-05-06 13:42 | 48.09578 | 9.46127 | 17350 ft | 294 kts | 358° |
| 2026-05-06 13:42 | 48.11642 | 9.46119 | 17608 ft | 298 kts | 357° |
| 2026-05-06 13:43 | 48.13705 | 9.46114 | 17868 ft | 300 kts | 358° |
| 2026-05-06 13:43 | 48.15783 | 9.46109 | 18240 ft | 298 kts | 358° |
| 2026-05-06 13:43 | 48.17879 | 9.46105 | 18556 ft | 299 kts | 358° |
| 2026-05-06 13:43 | 48.19943 | 9.46108 | 18897 ft | 299 kts | 358° |
| 2026-05-06 13:44 | 48.22030 | 9.46113 | 19157 ft | 301 kts | 358° |
| 2026-05-06 13:44 | 48.24095 | 9.46109 | 19471 ft | 300 kts | 358° |
| 2026-05-06 13:44 | 48.26217 | 9.46105 | 19703 ft | 304 kts | 358° |
| 2026-05-06 13:44 | 48.28306 | 9.46104 | 19999 ft | 303 kts | 358° |
| 2026-05-06 13:45 | 48.30415 | 9.46102 | 20235 ft | 303 kts | 358° |
| 2026-05-06 13:45 | 48.34648 | 9.46102 | 20735 ft | 303 kts | 358° |
| 2026-05-06 13:45 | 48.36748 | 9.46105 | 20886 ft | 306 kts | 358° |
| 2026-05-06 13:46 | 48.38883 | 9.46099 | 21065 ft | 308 kts | 358° |
| 2026-05-06 13:46 | 48.40997 | 9.46098 | 21273 ft | 308 kts | 358° |
| 2026-05-06 13:46 | 48.43147 | 9.46097 | 21429 ft | 309 kts | 358° |
| 2026-05-06 13:46 | 48.45297 | 9.46098 | 21614 ft | 311 kts | 358° |
| 2026-05-06 13:47 | 48.47460 | 9.46098 | 21748 ft | 313 kts | 358° |
| 2026-05-06 13:47 | 48.49654 | 9.46098 | 21784 ft | 319 kts | 358° |
| 2026-05-06 13:47 | 48.51902 | 9.46094 | 21792 ft | 324 kts | 358° |
| 2026-05-06 13:47 | 48.54156 | 9.46088 | 21792 ft | 329 kts | 358° |
| 2026-05-06 13:48 | 48.56466 | 9.46060 | 21780 ft | 334 kts | 357° |
| 2026-05-06 13:48 | 48.58803 | 9.46028 | 21787 ft | 337 kts | 357° |
| 2026-05-06 13:48 | 48.61140 | 9.45997 | 21789 ft | 341 kts | 357° |
| 2026-05-06 13:48 | 48.63535 | 9.45966 | 21784 ft | 343 kts | 357° |
| 2026-05-06 13:49 | 48.65917 | 9.45936 | 21784 ft | 346 kts | 357° |
| 2026-05-06 13:49 | 48.68331 | 9.45906 | 21782 ft | 348 kts | 357° |
| 2026-05-06 13:49 | 48.70755 | 9.45876 | 21786 ft | 349 kts | 358° |
| 2026-05-06 13:49 | 48.73202 | 9.45935 | 21775 ft | 352 kts | 2° |
| 2026-05-06 13:50 | 48.75641 | 9.46371 | 21785 ft | 353 kts | 6° |
| 2026-05-06 13:50 | 48.78054 | 9.46870 | 21784 ft | 355 kts | 6° |
| 2026-05-06 13:50 | 48.80523 | 9.47382 | 21783 ft | 356 kts | 6° |
| 2026-05-06 13:50 | 48.82943 | 9.47881 | 21773 ft | 356 kts | 6° |
| 2026-05-06 13:51 | 48.85395 | 9.48385 | 21786 ft | 357 kts | 6° |
| 2026-05-06 13:51 | 48.87865 | 9.48891 | 21784 ft | 357 kts | 6° |
| 2026-05-06 13:51 | 48.90316 | 9.49394 | 21783 ft | 358 kts | 6° |
| 2026-05-06 13:51 | 48.92782 | 9.49898 | 21777 ft | 358 kts | 6° |
| 2026-05-06 13:52 | 48.95264 | 9.50423 | 21773 ft | 359 kts | 8° |
| 2026-05-06 13:52 | 48.97699 | 9.51281 | 21787 ft | 360 kts | 14° |
| 2026-05-06 13:52 | 49.00078 | 9.52285 | 21778 ft | 361 kts | 14° |
| 2026-05-06 13:52 | 49.02501 | 9.53311 | 21779 ft | 361 kts | 14° |
| 2026-05-06 13:53 | 49.04933 | 9.54342 | 21772 ft | 362 kts | 14° |
| 2026-05-06 13:53 | 49.07357 | 9.55368 | 21779 ft | 362 kts | 14° |
| 2026-05-06 13:53 | 49.09769 | 9.56388 | 21788 ft | 363 kts | 14° |
| 2026-05-06 13:53 | 49.12235 | 9.57428 | 21787 ft | 363 kts | 14° |
| 2026-05-06 13:54 | 49.14675 | 9.58459 | 21785 ft | 363 kts | 14° |
| 2026-05-06 13:54 | 49.17088 | 9.59478 | 21783 ft | 363 kts | 14° |
| 2026-05-06 13:54 | 49.19515 | 9.60503 | 21787 ft | 363 kts | 14° |
| 2026-05-06 13:54 | 49.21948 | 9.61531 | 21787 ft | 363 kts | 14° |
| 2026-05-06 13:55 | 49.24381 | 9.62560 | 21786 ft | 363 kts | 14° |
| 2026-05-06 13:55 | 49.26821 | 9.63592 | 21786 ft | 364 kts | 14° |
| 2026-05-06 13:55 | 49.29261 | 9.64626 | 21786 ft | 364 kts | 14° |
| 2026-05-06 13:55 | 49.31712 | 9.65665 | 21787 ft | 364 kts | 14° |
| 2026-05-06 13:56 | 49.34129 | 9.66690 | 21787 ft | 364 kts | 14° |
| 2026-05-06 13:56 | 49.36552 | 9.67858 | 21784 ft | 364 kts | 18° |
| 2026-05-06 13:56 | 49.38934 | 9.69148 | 21783 ft | 364 kts | 19° |
| 2026-05-06 13:56 | 49.41324 | 9.70444 | 21783 ft | 364 kts | 18° |
| 2026-05-06 13:57 | 49.43706 | 9.71732 | 21777 ft | 364 kts | 18° |
| 2026-05-06 13:57 | 49.46094 | 9.73019 | 21779 ft | 364 kts | 18° |
| 2026-05-06 13:57 | 49.48448 | 9.74286 | 21778 ft | 364 kts | 18° |
| 2026-05-06 13:57 | 49.50838 | 9.75570 | 21773 ft | 364 kts | 18° |
| 2026-05-06 13:58 | 49.53238 | 9.76859 | 21767 ft | 364 kts | 18° |
| 2026-05-06 13:58 | 49.55639 | 9.78148 | 21768 ft | 364 kts | 18° |
| 2026-05-06 13:58 | 49.58009 | 9.79420 | 21765 ft | 364 kts | 18° |
| 2026-05-06 13:58 | 49.60418 | 9.80622 | 21754 ft | 363 kts | 12° |
| 2026-05-06 13:59 | 49.62913 | 9.80894 | 21793 ft | 359 kts | 356° |
| 2026-05-06 13:59 | 49.65387 | 9.80778 | 21779 ft | 359 kts | 356° |
| 2026-05-06 13:59 | 49.67912 | 9.80648 | 21765 ft | 360 kts | 355° |
| 2026-05-06 13:59 | 49.70388 | 9.80519 | 21761 ft | 360 kts | 355° |
| 2026-05-06 14:00 | 49.72909 | 9.80383 | 21761 ft | 360 kts | 355° |
| 2026-05-06 14:00 | 49.75382 | 9.80218 | 21764 ft | 360 kts | 355° |
| 2026-05-06 14:00 | 49.77900 | 9.80046 | 21760 ft | 360 kts | 355° |
| 2026-05-06 14:00 | 49.80376 | 9.79880 | 21756 ft | 359 kts | 355° |
| 2026-05-06 14:01 | 49.82864 | 9.79714 | 21759 ft | 359 kts | 355° |
| 2026-05-06 14:01 | 49.85366 | 9.79549 | 21759 ft | 359 kts | 355° |
| 2026-05-06 14:01 | 49.87861 | 9.79386 | 21757 ft | 359 kts | 355° |
| 2026-05-06 14:01 | 49.90356 | 9.79223 | 21756 ft | 358 kts | 355° |
| 2026-05-06 14:02 | 49.92844 | 9.79061 | 21754 ft | 358 kts | 355° |
| 2026-05-06 14:02 | 49.95326 | 9.78900 | 21755 ft | 358 kts | 355° |
| 2026-05-06 14:02 | 49.97821 | 9.78738 | 21758 ft | 358 kts | 355° |
| 2026-05-06 14:02 | 50.00275 | 9.78579 | 21755 ft | 358 kts | 355° |
| 2026-05-06 14:03 | 50.02767 | 9.78417 | 21751 ft | 358 kts | 355° |
| 2026-05-06 14:03 | 50.05246 | 9.78257 | 21756 ft | 358 kts | 355° |
| 2026-05-06 14:03 | 50.07735 | 9.78091 | 21762 ft | 358 kts | 354° |
| 2026-05-06 14:03 | 50.10210 | 9.77871 | 21757 ft | 358 kts | 354° |
| 2026-05-06 14:04 | 50.12691 | 9.77634 | 21759 ft | 358 kts | 354° |
| 2026-05-06 14:04 | 50.15193 | 9.77391 | 21759 ft | 358 kts | 354° |
| 2026-05-06 14:04 | 50.17681 | 9.77147 | 21752 ft | 358 kts | 354° |
| 2026-05-06 14:04 | 50.20150 | 9.76903 | 21756 ft | 358 kts | 354° |
| 2026-05-06 14:05 | 50.22639 | 9.76665 | 21757 ft | 359 kts | 355° |
| 2026-05-06 14:05 | 50.25120 | 9.76726 | 21763 ft | 360 kts | 0° |
| 2026-05-06 14:05 | 50.27626 | 9.76968 | 21754 ft | 360 kts | 1° |
| 2026-05-06 14:05 | 50.30124 | 9.77221 | 21751 ft | 360 kts | 1° |
| 2026-05-06 14:06 | 50.32603 | 9.77476 | 21759 ft | 361 kts | 1° |
| 2026-05-06 14:06 | 50.35101 | 9.77734 | 21758 ft | 361 kts | 1° |
| 2026-05-06 14:06 | 50.37609 | 9.77993 | 21760 ft | 361 kts | 1° |
| 2026-05-06 14:06 | 50.40130 | 9.78254 | 21761 ft | 361 kts | 1° |
| 2026-05-06 14:07 | 50.42632 | 9.78514 | 21752 ft | 361 kts | 1° |
| 2026-05-06 14:07 | 50.45121 | 9.78763 | 21753 ft | 361 kts | 0° |
| 2026-05-06 14:07 | 50.47619 | 9.79002 | 21752 ft | 361 kts | 0° |
| 2026-05-06 14:07 | 50.50119 | 9.79248 | 21753 ft | 362 kts | 0° |
| 2026-05-06 14:08 | 50.52631 | 9.79499 | 21753 ft | 362 kts | 0° |
| 2026-05-06 14:08 | 50.55157 | 9.79755 | 21752 ft | 362 kts | 1° |
| 2026-05-06 14:08 | 50.57645 | 9.80009 | 21753 ft | 362 kts | 1° |
| 2026-05-06 14:08 | 50.60150 | 9.80267 | 21757 ft | 362 kts | 1° |
| 2026-05-06 14:09 | 50.62675 | 9.80528 | 21752 ft | 362 kts | 1° |
| 2026-05-06 14:09 | 50.65162 | 9.80787 | 21757 ft | 363 kts | 0° |
| 2026-05-06 14:09 | 50.67683 | 9.81050 | 21744 ft | 363 kts | 0° |
| 2026-05-06 14:09 | 50.70192 | 9.81313 | 21749 ft | 363 kts | 0° |
| 2026-05-06 14:10 | 50.72723 | 9.81578 | 21752 ft | 363 kts | 1° |
| 2026-05-06 14:10 | 50.75245 | 9.81843 | 21749 ft | 363 kts | 0° |
| 2026-05-06 14:10 | 50.77742 | 9.82106 | 21752 ft | 363 kts | 0° |
| 2026-05-06 14:10 | 50.80267 | 9.82372 | 21750 ft | 363 kts | 0° |
| 2026-05-06 14:11 | 50.82792 | 9.82639 | 21758 ft | 364 kts | 0° |
| 2026-05-06 14:11 | 50.85298 | 9.82904 | 21755 ft | 364 kts | 0° |
| 2026-05-06 14:11 | 50.87823 | 9.83171 | 21747 ft | 365 kts | 0° |
| 2026-05-06 14:11 | 50.90349 | 9.83439 | 21743 ft | 365 kts | 0° |
| 2026-05-06 14:12 | 50.92886 | 9.83709 | 21745 ft | 365 kts | 0° |
| 2026-05-06 14:12 | 50.95423 | 9.83978 | 21750 ft | 365 kts | 0° |
| 2026-05-06 14:12 | 50.97942 | 9.84246 | 21750 ft | 365 kts | 0° |
| 2026-05-06 14:12 | 51.00464 | 9.84515 | 21750 ft | 365 kts | 0° |
| 2026-05-06 14:13 | 51.02995 | 9.84785 | 21740 ft | 365 kts | 0° |
| 2026-05-06 14:13 | 51.05534 | 9.85056 | 21749 ft | 366 kts | 0° |
| 2026-05-06 14:13 | 51.08051 | 9.85325 | 21750 ft | 366 kts | 0° |
| 2026-05-06 14:13 | 51.10589 | 9.85596 | 21749 ft | 366 kts | 0° |
| 2026-05-06 14:14 | 51.13138 | 9.85868 | 21744 ft | 365 kts | 0° |
| 2026-05-06 14:14 | 51.15672 | 9.86140 | 21749 ft | 365 kts | 1° |
| 2026-05-06 14:14 | 51.18222 | 9.86418 | 21741 ft | 365 kts | 0° |
| 2026-05-06 14:14 | 51.20728 | 9.86690 | 21752 ft | 365 kts | 0° |
| 2026-05-06 14:15 | 51.23282 | 9.86964 | 21753 ft | 365 kts | 0° |
| 2026-05-06 14:15 | 51.25811 | 9.87234 | 21750 ft | 365 kts | 0° |
| 2026-05-06 14:15 | 51.28306 | 9.87504 | 21746 ft | 365 kts | 1° |
| 2026-05-06 14:15 | 51.30829 | 9.87787 | 21745 ft | 365 kts | 1° |
| 2026-05-06 14:16 | 51.33356 | 9.88067 | 21754 ft | 365 kts | 1° |
| 2026-05-06 14:16 | 51.35905 | 9.88348 | 21754 ft | 365 kts | 1° |
| 2026-05-06 14:16 | 51.38413 | 9.88624 | 21748 ft | 365 kts | 1° |
| 2026-05-06 14:16 | 51.40958 | 9.88903 | 21750 ft | 365 kts | 1° |
| 2026-05-06 14:17 | 51.43469 | 9.89177 | 21749 ft | 365 kts | 1° |
| 2026-05-06 14:17 | 51.46011 | 9.89455 | 21756 ft | 365 kts | 1° |
| 2026-05-06 14:17 | 51.48539 | 9.89732 | 21755 ft | 365 kts | 1° |
| 2026-05-06 14:17 | 51.51079 | 9.90009 | 21753 ft | 365 kts | 1° |
| 2026-05-06 14:18 | 51.53579 | 9.90282 | 21754 ft | 365 kts | 1° |
| 2026-05-06 14:18 | 51.56118 | 9.90560 | 21757 ft | 365 kts | 1° |
| 2026-05-06 14:18 | 51.58655 | 9.90864 | 21751 ft | 366 kts | 2° |
| 2026-05-06 14:18 | 51.61168 | 9.91278 | 21750 ft | 366 kts | 3° |
| 2026-05-06 14:19 | 51.63706 | 9.91596 | 21756 ft | 365 kts | 1° |
| 2026-05-06 14:19 | 51.66244 | 9.91826 | 21752 ft | 365 kts | 0° |
| 2026-05-06 14:19 | 51.68774 | 9.92064 | 21750 ft | 365 kts | 1° |
| 2026-05-06 14:19 | 51.71310 | 9.92312 | 21755 ft | 365 kts | 1° |
| 2026-05-06 14:20 | 51.73805 | 9.92563 | 21754 ft | 365 kts | 1° |
| 2026-05-06 14:20 | 51.76341 | 9.92818 | 21753 ft | 365 kts | 1° |
| 2026-05-06 14:20 | 51.78869 | 9.93088 | 21760 ft | 365 kts | 1° |
| 2026-05-06 14:20 | 51.81412 | 9.93358 | 21754 ft | 365 kts | 1° |
| 2026-05-06 14:21 | 51.83944 | 9.93626 | 21753 ft | 365 kts | 1° |
| 2026-05-06 14:21 | 51.86441 | 9.93897 | 21760 ft | 365 kts | 1° |
| 2026-05-06 14:21 | 51.88974 | 9.94178 | 21756 ft | 365 kts | 2° |
| 2026-05-06 14:21 | 51.91518 | 9.94471 | 21754 ft | 365 kts | 1° |
| 2026-05-06 14:22 | 51.94022 | 9.94755 | 21757 ft | 365 kts | 1° |
| 2026-05-06 14:22 | 51.96557 | 9.95020 | 21756 ft | 365 kts | 1° |
| 2026-05-06 14:22 | 51.99092 | 9.95291 | 21755 ft | 365 kts | 1° |
| 2026-05-06 14:22 | 52.01619 | 9.95568 | 21755 ft | 365 kts | 1° |
| 2026-05-06 14:23 | 52.04149 | 9.95840 | 21758 ft | 365 kts | 1° |
| 2026-05-06 14:23 | 52.06653 | 9.96111 | 21756 ft | 364 kts | 1° |
| 2026-05-06 14:23 | 52.09176 | 9.96390 | 21760 ft | 364 kts | 1° |
| 2026-05-06 14:23 | 52.11708 | 9.96674 | 21763 ft | 364 kts | 1° |
| 2026-05-06 14:24 | 52.14225 | 9.96962 | 21766 ft | 363 kts | 2° |
| 2026-05-06 14:24 | 52.16750 | 9.97248 | 21766 ft | 363 kts | 2° |
| 2026-05-06 14:24 | 52.19289 | 9.97535 | 21770 ft | 363 kts | 1° |
| 2026-05-06 14:24 | 52.21786 | 9.97812 | 21768 ft | 363 kts | 1° |
| 2026-05-06 14:25 | 52.24301 | 9.98092 | 21770 ft | 363 kts | 2° |
| 2026-05-06 14:25 | 52.26820 | 9.98382 | 21768 ft | 363 kts | 2° |
| 2026-05-06 14:25 | 52.29338 | 9.98664 | 21777 ft | 362 kts | 1° |
| 2026-05-06 14:25 | 52.31837 | 9.98942 | 21784 ft | 362 kts | 2° |
| 2026-05-06 14:26 | 52.34326 | 9.99219 | 21788 ft | 362 kts | 2° |
| 2026-05-06 14:26 | 52.36827 | 9.99497 | 21793 ft | 361 kts | 2° |
| 2026-05-06 14:26 | 52.39320 | 9.99775 | 21794 ft | 362 kts | 1° |
| 2026-05-06 14:26 | 52.41839 | 10.00058 | 21794 ft | 361 kts | 2° |
| 2026-05-06 14:27 | 52.44356 | 10.00341 | 21801 ft | 361 kts | 2° |
| 2026-05-06 14:27 | 52.46827 | 10.00621 | 21799 ft | 361 kts | 2° |
| 2026-05-06 14:27 | 52.49335 | 10.00918 | 21799 ft | 361 kts | 2° |
| 2026-05-06 14:27 | 52.51850 | 10.01210 | 21688 ft | 364 kts | 2° |
| 2026-05-06 14:28 | 52.54391 | 10.01511 | 21442 ft | 370 kts | 2° |
| 2026-05-06 14:28 | 52.56953 | 10.02237 | 21183 ft | 376 kts | 13° |
| 2026-05-06 14:28 | 52.59465 | 10.03358 | 20942 ft | 380 kts | 14° |
| 2026-05-06 14:28 | 52.62029 | 10.04523 | 20692 ft | 382 kts | 14° |
| 2026-05-06 14:29 | 52.64536 | 10.05662 | 20424 ft | 371 kts | 14° |
| 2026-05-06 14:29 | 52.66984 | 10.06769 | 20149 ft | 359 kts | 14° |
| 2026-05-06 14:29 | 52.69365 | 10.07842 | 19879 ft | 350 kts | 14° |
| 2026-05-06 14:29 | 52.71678 | 10.08891 | 19615 ft | 343 kts | 14° |
| 2026-05-06 14:30 | 52.73961 | 10.09927 | 19352 ft | 337 kts | 14° |
| 2026-05-06 14:30 | 52.76189 | 10.10925 | 19091 ft | 332 kts | 14° |
| 2026-05-06 14:30 | 52.78429 | 10.11668 | 18824 ft | 326 kts | 3° |
| 2026-05-06 14:30 | 52.80682 | 10.11797 | 18569 ft | 322 kts | 359° |
| 2026-05-06 14:31 | 52.82880 | 10.11846 | 18318 ft | 318 kts | 359° |
| 2026-05-06 14:31 | 52.85110 | 10.11923 | 18072 ft | 321 kts | 359° |
| 2026-05-06 14:31 | 52.87354 | 10.11992 | 17832 ft | 328 kts | 359° |
| 2026-05-06 14:31 | 52.89658 | 10.12046 | 17597 ft | 336 kts | 359° |
| 2026-05-06 14:32 | 52.91988 | 10.12111 | 17367 ft | 344 kts | 359° |
| 2026-05-06 14:32 | 52.94398 | 10.12178 | 17131 ft | 351 kts | 359° |
| 2026-05-06 14:32 | 52.96856 | 10.12248 | 16890 ft | 356 kts | 360° |
| 2026-05-06 14:32 | 52.99336 | 10.12317 | 16647 ft | 359 kts | 360° |
| 2026-05-06 14:33 | 53.01840 | 10.12390 | 16404 ft | 360 kts | 360° |
| 2026-05-06 14:33 | 53.04350 | 10.12465 | 16163 ft | 361 kts | 360° |
| 2026-05-06 14:33 | 53.06850 | 10.12542 | 15916 ft | 361 kts | 360° |
| 2026-05-06 14:33 | 53.09332 | 10.12619 | 15677 ft | 361 kts | 0° |
| 2026-05-06 14:34 | 53.11847 | 10.12698 | 15432 ft | 360 kts | 0° |
| 2026-05-06 14:34 | 53.14346 | 10.12784 | 15181 ft | 360 kts | 1° |
| 2026-05-06 14:34 | 53.16827 | 10.12886 | 15098 ft | 354 kts | 0° |
| 2026-05-06 14:34 | 53.19299 | 10.12964 | 14713 ft | 355 kts | 0° |
| 2026-05-06 14:35 | 53.21722 | 10.13038 | 14260 ft | 348 kts | 0° |
| 2026-05-06 14:35 | 53.24113 | 10.13117 | 13821 ft | 343 kts | 1° |
| 2026-05-06 14:35 | 53.26027 | 10.13194 | 13444 ft | 339 kts | 0° |
| 2026-05-06 14:35 | 53.28359 | 10.13266 | 12992 ft | 334 kts | 1° |
| 2026-05-06 14:36 | 53.30657 | 10.13340 | 12545 ft | 325 kts | 360° |
| 2026-05-06 14:36 | 53.32872 | 10.13382 | 12121 ft | 311 kts | 0° |
| 2026-05-06 14:36 | 53.34926 | 10.13433 | 11729 ft | 298 kts | 0° |
| 2026-05-06 14:36 | 53.36633 | 10.13480 | 11397 ft | 289 kts | 0° |
| 2026-05-06 14:37 | 53.38596 | 10.13404 | 10960 ft | 280 kts | 350° |
| 2026-05-06 14:37 | 53.40256 | 10.12001 | 10744 ft | 261 kts | 317° |
| 2026-05-06 14:37 | 53.41462 | 10.09922 | 10556 ft | 244 kts | 313° |
| 2026-05-06 14:37 | 53.42630 | 10.07852 | 10412 ft | 247 kts | 314° |
| 2026-05-06 14:38 | 53.43835 | 10.05711 | 10280 ft | 257 kts | 313° |
| 2026-05-06 14:38 | 53.45052 | 10.03511 | 10087 ft | 258 kts | 313° |
| 2026-05-06 14:38 | 53.46262 | 10.01295 | 9823 ft | 251 kts | 313° |
| 2026-05-06 14:38 | 53.47422 | 9.99168 | 9572 ft | 253 kts | 313° |
| 2026-05-06 14:39 | 53.48570 | 9.96890 | 9324 ft | 256 kts | 302° |
| 2026-05-06 14:39 | 53.48989 | 9.94054 | 9047 ft | 255 kts | 263° |
| 2026-05-06 14:39 | 53.48315 | 9.91369 | 8811 ft | 257 kts | 233° |
| 2026-05-06 14:39 | 53.47211 | 9.88983 | 8582 ft | 263 kts | 230° |
| 2026-05-06 14:40 | 53.46069 | 9.86617 | 8476 ft | 257 kts | 230° |
| 2026-05-06 14:40 | 53.44940 | 9.84317 | 8239 ft | 257 kts | 229° |
| 2026-05-06 14:40 | 53.43799 | 9.82013 | 7990 ft | 256 kts | 229° |
| 2026-05-06 14:40 | 53.42652 | 9.79719 | 7725 ft | 256 kts | 227° |
| 2026-05-06 14:41 | 53.41540 | 9.77533 | 7644 ft | 236 kts | 228° |
| 2026-05-06 14:41 | 53.40522 | 9.75518 | 7513 ft | 218 kts | 227° |
| 2026-05-06 14:41 | 53.39560 | 9.73602 | 7182 ft | 216 kts | 227° |
| 2026-05-06 14:41 | 53.38605 | 9.71695 | 6898 ft | 212 kts | 227° |
| 2026-05-06 14:42 | 53.37655 | 9.69817 | 6463 ft | 212 kts | 227° |
| 2026-05-06 14:42 | 53.36897 | 9.67754 | 6027 ft | 214 kts | 255° |
| 2026-05-06 14:42 | 53.36879 | 9.65324 | 5651 ft | 210 kts | 288° |
| 2026-05-06 14:42 | 53.37591 | 9.63271 | 5326 ft | 201 kts | 314° |
| 2026-05-06 14:43 | 53.38598 | 9.61695 | 4968 ft | 194 kts | 338° |
| 2026-05-06 14:43 | 53.39838 | 9.61297 | 4621 ft | 181 kts | 14° |
| 2026-05-06 14:43 | 53.41015 | 9.61913 | 4334 ft | 176 kts | 24° |
| 2026-05-06 14:43 | 53.42155 | 9.62622 | 4064 ft | 174 kts | 24° |
| 2026-05-06 14:44 | 53.43279 | 9.63321 | 3787 ft | 173 kts | 24° |
| 2026-05-06 14:44 | 53.44406 | 9.64022 | 3608 ft | 172 kts | 24° |
| 2026-05-06 14:44 | 53.45533 | 9.64720 | 3435 ft | 171 kts | 24° |
| 2026-05-06 14:45 | 53.47320 | 9.67078 | 3075 ft | 163 kts | 52° |
| 2026-05-06 14:45 | 53.48018 | 9.68548 | 3003 ft | 159 kts | 50° |
| 2026-05-06 14:45 | 53.48741 | 9.70001 | 2983 ft | 165 kts | 50° |
| 2026-05-06 14:45 | 53.49480 | 9.71485 | 2966 ft | 167 kts | 50° |
| 2026-05-06 14:46 | 53.50220 | 9.72967 | 2961 ft | 167 kts | 50° |
| 2026-05-06 14:46 | 53.50969 | 9.74470 | 2957 ft | 168 kts | 50° |
| 2026-05-06 14:46 | 53.51723 | 9.75983 | 2955 ft | 168 kts | 50° |
| 2026-05-06 14:46 | 53.52477 | 9.77498 | 2949 ft | 169 kts | 50° |
| 2026-05-06 14:47 | 53.53236 | 9.79020 | 2784 ft | 173 kts | 50° |
| 2026-05-06 14:47 | 53.54009 | 9.80567 | 2528 ft | 171 kts | 50° |
| 2026-05-06 14:47 | 53.54758 | 9.82052 | 2254 ft | 163 kts | 48° |
| 2026-05-06 14:47 | 53.55474 | 9.83493 | 2028 ft | 160 kts | 49° |
| 2026-05-06 14:48 | 53.56176 | 9.84936 | 1852 ft | 163 kts | 50° |
| 2026-05-06 14:48 | 53.56901 | 9.86393 | 1623 ft | 160 kts | 49° |
| 2026-05-06 14:48 | 53.57600 | 9.87819 | 1446 ft | 157 kts | 50° |
| 2026-05-06 14:48 | 53.58282 | 9.89188 | 1198 ft | 148 kts | 50° |
| 2026-05-06 14:49 | 53.58901 | 9.90449 | 1004 ft | 132 kts | 50° |
| 2026-05-06 14:49 | 53.59463 | 9.91576 | 836 ft | 120 kts | 51° |
| 2026-05-06 14:49 | 53.59990 | 9.92659 | 735 ft | 125 kts | 50° |
| 2026-05-06 14:49 | 53.60554 | 9.93794 | 569 ft | 123 kts | 49° |
| 2026-05-06 14:50 | 53.61109 | 9.94854 | 402 ft | 123 kts | 47° |
| 2026-05-06 14:50 | 53.61661 | 9.95957 | 197 ft | 122 kts | 54° |
| 2026-05-06 14:50 | 53.62163 | 9.97066 | 46 ft | 115 kts | 46° |
| 2026-05-06 14:50 | 53.62584 | 9.97907 | 42 ft | 66 kts | 51° |
| 2026-05-06 14:51 | 53.62902 | 9.98555 | 45 ft | 76 kts | 49° |
| 2026-05-06 14:51 | 53.63093 | 9.99073 | 46 ft | 33 kts | 89° |
| 2026-05-06 14:51 | 53.63089 | 9.99271 | 46 ft | 8 kts | 82° |
| 2026-05-06 14:51 | 53.63091 | 9.99344 | 46 ft | 4 kts | 87° |
| 2026-05-06 14:52 | 53.63091 | 9.99348 | 46 ft | 0 kts | 86° |
| 2026-05-06 14:53 | 53.63092 | 9.99365 | 46 ft | 8 kts | 79° |
| 2026-05-06 14:53 | 53.63127 | 9.99467 | 47 ft | 9 kts | 52° |
| 2026-05-06 14:54 | 53.63187 | 9.99596 | 47 ft | 12 kts | 50° |
| 2026-05-06 14:54 | 53.63211 | 9.99648 | 48 ft | 0 kts | 52° |
| 2026-05-06 14:55 | 53.63215 | 9.99654 | 48 ft | 5 kts | 50° |
| 2026-05-06 14:55 | 53.63260 | 9.99732 | 48 ft | 8 kts | 45° |
| 2026-05-06 14:55 | 53.63298 | 9.99797 | 48 ft | 11 kts | 47° |
| 2026-05-06 14:55 | 53.63352 | 9.99910 | 49 ft | 10 kts | 46° |
| 2026-05-06 14:56 | 53.63363 | 9.99952 | 50 ft | 4 kts | 118° |
| 2026-05-06 14:56 | 53.63338 | 9.99994 | 50 ft | 5 kts | 140° |
| 2026-05-06 14:56 | 53.63314 | 10.00027 | 50 ft | 0 kts | 140° |